sensor_id;sensor_type;location;lat;lon;timestamp;pressure;altitude;pressure_sealevel;temperature;humidity
10071;BME280;5074;53.720;10.014;2022-09-09T00:00:13;100426.78;;;13.36;100.00
10071;BME280;5074;53.720;10.014;2022-09-09T00:02:46;100424.19;;;13.35;100.00
10071;BME280;5074;53.720;10.014;2022-09-09T00:05:25;100418.81;;;13.35;100.00
10071;BME280;5074;53.720;10.014;2022-09-09T00:07:59;100419.81;;;13.32;100.00
10071;BME280;5074;53.720;10.014;2022-09-09T00:10:32;100417.03;;;13.34;100.00
10071;BME280;5074;53.720;10.014;2022-09-09T00:13:08;100425.97;;;13.34;100.00
10071;BME280;5074;53.720;10.014;2022-09-09T00:15:45;100424.19;;;13.35;100.00
10071;BME280;5074;53.720;10.014;2022-09-09T00:18:23;100426.78;;;13.36;100.00
10071;BME280;5074;53.720;10.014;2022-09-09T00:20:56;100417.00;;;13.35;100.00
10071;BME280;5074;53.720;10.014;2022-09-09T00:23:29;100425.09;;;13.34;100.00
10071;BME280;5074;53.720;10.014;2022-09-09T00:26:04;100423.09;;;13.39;100.00
10071;BME280;5074;53.720;10.014;2022-09-09T00:28:39;100428.66;;;13.34;100.00
10071;BME280;5074;53.720;10.014;2022-09-09T00:31:13;100423.16;;;13.37;100.00
10071;BME280;5074;53.720;10.014;2022-09-09T00:33:42;100425.84;;;13.37;100.00
10071;BME280;5074;53.720;10.014;2022-09-09T00:36:13;100428.38;;;13.41;100.00
10071;BME280;5074;53.720;10.014;2022-09-09T00:38:47;100424.72;;;13.42;100.00
10071;BME280;5074;53.720;10.014;2022-09-09T00:41:20;100423.84;;;13.41;100.00
10071;BME280;5074;53.720;10.014;2022-09-09T00:43:56;100422.09;;;13.40;100.00
10071;BME280;5074;53.720;10.014;2022-09-09T00:46:37;100415.81;;;13.41;100.00
10071;BME280;5074;53.720;10.014;2022-09-09T00:49:18;100412.19;;;13.42;100.00
10071;BME280;5074;53.720;10.014;2022-09-09T00:51:55;100414.94;;;13.41;100.00
10071;BME280;5074;53.720;10.014;2022-09-09T00:54:37;100413.28;;;13.38;100.00
10071;BME280;5074;53.720;10.014;2022-09-09T00:57:15;100414.94;;;13.41;100.00
10071;BME280;5074;53.720;10.014;2022-09-09T00:59:47;100413.97;;;13.42;100.00
10071;BME280;5074;53.720;10.014;2022-09-09T01:02:26;100417.72;;;13.39;100.00
10071;BME280;5074;53.720;10.014;2022-09-09T01:05:00;100424.72;;;13.42;100.00
10071;BME280;5074;53.720;10.014;2022-09-09T01:07:32;100416.81;;;13.38;100.00
10071;BME280;5074;53.720;10.014;2022-09-09T01:10:07;100419.50;;;13.38;100.00
10071;BME280;5074;53.720;10.014;2022-09-09T01:12:41;100416.81;;;13.38;100.00
10071;BME280;5074;53.720;10.014;2022-09-09T01:15:12;100429.38;;;13.38;100.00
10071;BME280;5074;53.720;10.014;2022-09-09T01:17:53;100422.19;;;13.38;100.00
10071;BME280;5074;53.720;10.014;2022-09-09T01:20:27;100416.81;;;13.38;100.00
10071;BME280;5074;53.720;10.014;2022-09-09T01:23:08;100408.94;;;13.35;100.00
10071;BME280;5074;53.720;10.014;2022-09-09T01:26:18;100408.94;;;13.35;100.00
10071;BME280;5074;53.720;10.014;2022-09-09T01:28:50;100410.59;;;13.38;100.00
10071;BME280;5074;53.720;10.014;2022-09-09T01:31:23;100413.97;;;13.42;100.00
10071;BME280;5074;53.720;10.014;2022-09-09T01:33:51;100404.28;;;13.39;100.00
10071;BME280;5074;53.720;10.014;2022-09-09T01:36:26;100401.69;;;13.37;100.00
10071;BME280;5074;53.720;10.014;2022-09-09T01:38:56;100408.59;;;13.42;100.00
10071;BME280;5074;53.720;10.014;2022-09-09T01:41:25;100405.91;;;13.42;100.00
10071;BME280;5074;53.720;10.014;2022-09-09T01:43:54;100404.97;;;13.43;100.00
10071;BME280;5074;53.720;10.014;2022-09-09T01:46:23;100409.31;;;13.45;100.00
10071;BME280;5074;53.720;10.014;2022-09-09T01:48:52;100415.56;;;13.46;100.00
10071;BME280;5074;53.720;10.014;2022-09-09T01:51:21;100424.72;;;13.42;100.00
10071;BME280;5074;53.720;10.014;2022-09-09T01:53:49;100414.06;;;13.40;100.00
10071;BME280;5074;53.720;10.014;2022-09-09T01:56:38;100411.38;;;13.40;100.00
10071;BME280;5074;53.720;10.014;2022-09-09T01:59:23;100402.53;;;13.38;100.00
10071;BME280;5074;53.720;10.014;2022-09-09T02:02:00;100409.56;;;13.41;100.00
10071;BME280;5074;53.720;10.014;2022-09-09T02:04:37;100397.94;;;13.40;100.00
10071;BME280;5074;53.720;10.014;2022-09-09T02:07:14;100399.59;;;13.43;100.00
10071;BME280;5074;53.720;10.014;2022-09-09T02:09:51;100396.16;;;13.41;100.00
10071;BME280;5074;53.720;10.014;2022-09-09T02:12:23;100391.63;;;13.41;100.00
10071;BME280;5074;53.720;10.014;2022-09-09T02:14:56;100393.56;;;13.39;100.00
10071;BME280;5074;53.720;10.014;2022-09-09T02:17:27;100394.41;;;13.40;100.00
10071;BME280;5074;53.720;10.014;2022-09-09T02:20:03;100392.66;;;13.38;100.00
10071;BME280;5074;53.720;10.014;2022-09-09T02:22:33;100398.84;;;13.41;100.00
10071;BME280;5074;53.720;10.014;2022-09-09T02:25:03;100406.09;;;13.38;100.00
10071;BME280;5074;53.720;10.014;2022-09-09T02:27:34;100406.25;;;13.35;100.00
10071;BME280;5074;53.720;10.014;2022-09-09T02:30:03;100408.13;;;13.33;100.00
10071;BME280;5074;53.720;10.014;2022-09-09T02:32:35;100400.16;;;13.32;100.00
10071;BME280;5074;53.720;10.014;2022-09-09T02:35:07;100404.63;;;13.31;100.00
10071;BME280;5074;53.720;10.014;2022-09-09T02:37:38;100402.84;;;13.32;100.00
10071;BME280;5074;53.720;10.014;2022-09-09T02:40:09;100406.38;;;13.32;100.00
10071;BME280;5074;53.720;10.014;2022-09-09T02:42:40;100397.47;;;13.32;100.00
10071;BME280;5074;53.720;10.014;2022-09-09T02:45:09;100395.09;;;13.26;100.00
10071;BME280;5074;53.720;10.014;2022-09-09T02:47:43;100397.78;;;13.26;100.00
10071;BME280;5074;53.720;10.014;2022-09-09T02:50:17;100402.28;;;13.25;100.00
10071;BME280;5074;53.720;10.014;2022-09-09T02:52:57;100396.06;;;13.25;100.00
10071;BME280;5074;53.720;10.014;2022-09-09T02:55:35;100398.09;;;13.19;100.00
10071;BME280;5074;53.720;10.014;2022-09-09T02:58:09;100402.78;;;13.16;100.00
10071;BME280;5074;53.720;10.014;2022-09-09T03:00:39;100402.69;;;13.17;100.00
10071;BME280;5074;53.720;10.014;2022-09-09T03:03:08;100406.25;;;13.18;100.00
10071;BME280;5074;53.720;10.014;2022-09-09T03:05:36;100405.38;;;13.17;100.00
10071;BME280;5074;53.720;10.014;2022-09-09T03:08:05;100404.66;;;13.14;100.00
10071;BME280;5074;53.720;10.014;2022-09-09T03:10:33;100400.22;;;13.13;100.00
10071;BME280;5074;53.720;10.014;2022-09-09T03:13:02;100399.38;;;13.12;100.00
10071;BME280;5074;53.720;10.014;2022-09-09T03:15:32;100410.09;;;13.12;100.00
10071;BME280;5074;53.720;10.014;2022-09-09T03:18:01;100409.25;;;13.12;100.00
10071;BME280;5074;53.720;10.014;2022-09-09T03:20:30;100406.56;;;13.12;100.00
10071;BME280;5074;53.720;10.014;2022-09-09T03:22:59;100398.69;;;13.09;100.00
10071;BME280;5074;53.720;10.014;2022-09-09T03:25:28;100404.03;;;13.09;100.00
10071;BME280;5074;53.720;10.014;2022-09-09T03:27:57;100403.22;;;13.07;100.00
10071;BME280;5074;53.720;10.014;2022-09-09T03:30:26;100406.00;;;13.05;100.00
10071;BME280;5074;53.720;10.014;2022-09-09T03:32:56;100407.00;;;13.02;100.00
10071;BME280;5074;53.720;10.014;2022-09-09T03:35:24;100404.66;;;12.96;100.00
10071;BME280;5074;53.720;10.014;2022-09-09T03:37:52;100403.56;;;13.00;100.00
10071;BME280;5074;53.720;10.014;2022-09-09T03:40:22;100403.72;;;12.97;100.00
10071;BME280;5074;53.720;10.014;2022-09-09T03:42:50;100402.06;;;12.95;100.00
10071;BME280;5074;53.720;10.014;2022-09-09T03:45:18;100403.00;;;12.94;100.00
10071;BME280;5074;53.720;10.014;2022-09-09T03:47:46;100405.59;;;12.95;100.00
10071;BME280;5074;53.720;10.014;2022-09-09T03:50:15;100403.16;;;12.91;100.00
10071;BME280;5074;53.720;10.014;2022-09-09T03:52:45;100408.59;;;12.89;100.00
10071;BME280;5074;53.720;10.014;2022-09-09T03:55:13;100412.00;;;12.93;100.00
10071;BME280;5074;53.720;10.014;2022-09-09T03:57:41;100408.34;;;12.94;100.00
10071;BME280;5074;53.720;10.014;2022-09-09T04:00:10;100412.13;;;12.90;100.00
10071;BME280;5074;53.720;10.014;2022-09-09T04:02:38;100412.22;;;12.88;100.00
10071;BME280;5074;53.720;10.014;2022-09-09T04:05:07;100413.19;;;12.87;100.00
10071;BME280;5074;53.720;10.014;2022-09-09T04:07:36;100414.44;;;12.80;100.00
10071;BME280;5074;53.720;10.014;2022-09-09T04:10:05;100413.63;;;12.78;100.00
10071;BME280;5074;53.720;10.014;2022-09-09T04:12:33;100416.38;;;12.76;100.00
10071;BME280;5074;53.720;10.014;2022-09-09T04:15:02;100418.38;;;12.73;100.00
10071;BME280;5074;53.720;10.014;2022-09-09T04:17:30;100413.22;;;12.68;100.00
10071;BME280;5074;53.720;10.014;2022-09-09T04:19:59;100423.22;;;12.64;100.00
10071;BME280;5074;53.720;10.014;2022-09-09T04:22:27;100424.81;;;12.68;100.00
10071;BME280;5074;53.720;10.014;2022-09-09T04:24:57;100423.94;;;12.68;100.00
10071;BME280;5074;53.720;10.014;2022-09-09T04:27:25;100428.44;;;12.67;100.00
10071;BME280;5074;53.720;10.014;2022-09-09T04:29:53;100434.66;;;12.68;100.00
10071;BME280;5074;53.720;10.014;2022-09-09T04:32:22;100430.41;;;12.64;100.00
10071;BME280;5074;53.720;10.014;2022-09-09T04:34:53;100434.03;;;12.63;100.00
10071;BME280;5074;53.720;10.014;2022-09-09T04:37:21;100429.44;;;12.65;100.00
10071;BME280;5074;53.720;10.014;2022-09-09T04:39:49;100433.31;;;12.59;100.00
10071;BME280;5074;53.720;10.014;2022-09-09T04:42:18;100439.25;;;12.66;100.00
10071;BME280;5074;53.720;10.014;2022-09-09T04:44:46;100439.09;;;12.69;100.00
10071;BME280;5074;53.720;10.014;2022-09-09T04:47:14;100433.72;;;12.69;100.00
10071;BME280;5074;53.720;10.014;2022-09-09T04:49:42;100441.22;;;12.62;100.00
10071;BME280;5074;53.720;10.014;2022-09-09T04:52:10;100447.28;;;12.66;100.00
10071;BME280;5074;53.720;10.014;2022-09-09T04:54:39;100444.53;;;12.67;100.00
10071;BME280;5074;53.720;10.014;2022-09-09T04:57:06;100447.06;;;12.71;100.00
10071;BME280;5074;53.720;10.014;2022-09-09T04:59:36;100445.25;;;12.71;100.00
10071;BME280;5074;53.720;10.014;2022-09-09T05:02:04;100447.06;;;12.71;100.00
10071;BME280;5074;53.720;10.014;2022-09-09T05:04:32;100445.25;;;12.71;100.00
10071;BME280;5074;53.720;10.014;2022-09-09T05:07:00;100446.13;;;12.72;100.00
10071;BME280;5074;53.720;10.014;2022-09-09T05:09:29;100446.13;;;12.72;100.00
10071;BME280;5074;53.720;10.014;2022-09-09T05:11:57;100445.97;;;12.75;100.00
10071;BME280;5074;53.720;10.014;2022-09-09T05:14:26;100451.16;;;12.78;100.00
10071;BME280;5074;53.720;10.014;2022-09-09T05:16:55;100446.13;;;12.72;100.00
10071;BME280;5074;53.720;10.014;2022-09-09T05:19:24;100449.66;;;12.72;100.00
10071;BME280;5074;53.720;10.014;2022-09-09T05:21:52;100449.97;;;12.66;100.00
10071;BME280;5074;53.720;10.014;2022-09-09T05:24:20;100448.44;;;12.60;100.00
10071;BME280;5074;53.720;10.014;2022-09-09T05:26:49;100456.19;;;12.66;100.00
10071;BME280;5074;53.720;10.014;2022-09-09T05:29:17;100448.38;;;12.62;100.00
10071;BME280;5074;53.720;10.014;2022-09-09T05:31:46;100463.53;;;12.63;100.00
10071;BME280;5074;53.720;10.014;2022-09-09T05:34:16;100459.25;;;12.59;100.00
10071;BME280;5074;53.720;10.014;2022-09-09T05:36:44;100461.22;;;12.55;100.00
10071;BME280;5074;53.720;10.014;2022-09-09T05:39:12;100464.84;;;12.54;100.00
10071;BME280;5074;53.720;10.014;2022-09-09T05:41:40;100460.34;;;12.55;100.00
10071;BME280;5074;53.720;10.014;2022-09-09T05:44:08;100457.88;;;12.50;100.00
10071;BME280;5074;53.720;10.014;2022-09-09T05:46:36;100460.56;;;12.50;100.00
10071;BME280;5074;53.720;10.014;2022-09-09T05:49:04;100461.56;;;12.47;100.00
10071;BME280;5074;53.720;10.014;2022-09-09T05:51:34;100460.56;;;12.50;100.00
10071;BME280;5074;53.720;10.014;2022-09-09T05:54:02;100471.13;;;12.53;100.00
10071;BME280;5074;53.720;10.014;2022-09-09T05:56:30;100476.56;;;12.51;100.00
10071;BME280;5074;53.720;10.014;2022-09-09T05:58:59;100476.44;;;12.55;100.00
10071;BME280;5074;53.720;10.014;2022-09-09T06:01:30;100478.25;;;12.54;100.00
10071;BME280;5074;53.720;10.014;2022-09-09T06:03:59;100475.41;;;12.57;100.00
10071;BME280;5074;53.720;10.014;2022-09-09T06:06:30;100485.34;;;12.55;100.00
10071;BME280;5074;53.720;10.014;2022-09-09T06:09:05;100480.69;;;12.59;100.00
10071;BME280;5074;53.720;10.014;2022-09-09T06:11:37;100489.41;;;12.64;100.00
10071;BME280;5074;53.720;10.014;2022-09-09T06:14:06;100478.88;;;12.59;100.00
10071;BME280;5074;53.720;10.014;2022-09-09T06:16:35;100492.72;;;12.69;100.00
10071;BME280;5074;53.720;10.014;2022-09-09T06:19:04;100494.06;;;12.78;100.00
10071;BME280;5074;53.720;10.014;2022-09-09T06:21:35;100492.84;;;12.85;100.00
10071;BME280;5074;53.720;10.014;2022-09-09T06:24:06;100502.56;;;12.88;100.00
10071;BME280;5074;53.720;10.014;2022-09-09T06:26:36;100489.06;;;12.89;100.00
10071;BME280;5074;53.720;10.014;2022-09-09T06:29:08;100507.44;;;12.97;100.00
10071;BME280;5074;53.720;10.014;2022-09-09T06:31:36;100508.19;;;13.00;100.00
10071;BME280;5074;53.720;10.014;2022-09-09T06:34:07;100502.50;;;13.07;100.00
10071;BME280;5074;53.720;10.014;2022-09-09T06:36:37;100506.06;;;13.07;100.00
10071;BME280;5074;53.720;10.014;2022-09-09T06:39:07;100508.69;;;13.09;100.00
10071;BME280;5074;53.720;10.014;2022-09-09T06:41:41;100506.53;;;13.15;100.00
10071;BME280;5074;53.720;10.014;2022-09-09T06:44:10;100508.03;;;13.21;100.00
10071;BME280;5074;53.720;10.014;2022-09-09T06:46:39;100508.84;;;13.23;100.00
10071;BME280;5074;53.720;10.014;2022-09-09T06:49:07;100508.63;;;13.28;100.00
10071;BME280;5074;53.720;10.014;2022-09-09T06:51:37;100509.31;;;13.31;100.00
10071;BME280;5074;53.720;10.014;2022-09-09T06:54:11;100504.72;;;13.35;100.00
10071;BME280;5074;53.720;10.014;2022-09-09T06:56:41;100509.75;;;13.41;100.00
10071;BME280;5074;53.720;10.014;2022-09-09T06:59:10;100505.88;;;13.47;100.00
10071;BME280;5074;53.720;10.014;2022-09-09T07:01:40;100491.59;;;13.46;100.00
10071;BME280;5074;53.720;10.014;2022-09-09T07:04:08;100504.13;;;13.63;100.00
10071;BME280;5074;53.720;10.014;2022-09-09T07:06:39;100508.31;;;13.69;100.00
10071;BME280;5074;53.720;10.014;2022-09-09T07:09:09;100510.38;;;13.81;100.00
10071;BME280;5074;53.720;10.014;2022-09-09T07:11:39;100509.78;;;13.92;100.00
10071;BME280;5074;53.720;10.014;2022-09-09T07:14:08;100503.94;;;14.01;100.00
10071;BME280;5074;53.720;10.014;2022-09-09T07:16:39;100507.06;;;14.10;100.00
10071;BME280;5074;53.720;10.014;2022-09-09T07:19:08;100499.00;;;14.10;100.00
10071;BME280;5074;53.720;10.014;2022-09-09T07:21:37;100518.47;;;14.31;100.00
10071;BME280;5074;53.720;10.014;2022-09-09T07:24:07;100517.81;;;14.43;100.00
10071;BME280;5074;53.720;10.014;2022-09-09T07:26:39;100525.34;;;14.52;100.00
10071;BME280;5074;53.720;10.014;2022-09-09T07:29:07;100519.97;;;14.52;100.00
10071;BME280;5074;53.720;10.014;2022-09-09T07:31:38;100524.81;;;14.63;100.00
10071;BME280;5074;53.720;10.014;2022-09-09T07:34:06;100522.44;;;14.73;100.00
10071;BME280;5074;53.720;10.014;2022-09-09T07:36:35;100525.22;;;14.87;100.00
10071;BME280;5074;53.720;10.014;2022-09-09T07:39:06;100523.03;;;14.94;100.00
10071;BME280;5074;53.720;10.014;2022-09-09T07:41:36;100525.28;;;15.02;100.00
10071;BME280;5074;53.720;10.014;2022-09-09T07:44:07;100529.53;;;15.06;100.00
10071;BME280;5074;53.720;10.014;2022-09-09T07:46:35;100531.97;;;15.10;100.00
10071;BME280;5074;53.720;10.014;2022-09-09T07:49:05;100522.66;;;15.16;100.00
10071;BME280;5074;53.720;10.014;2022-09-09T07:51:35;100528.03;;;15.16;100.00
10071;BME280;5074;53.720;10.014;2022-09-09T07:54:05;100525.16;;;15.19;100.00
10071;BME280;5074;53.720;10.014;2022-09-09T07:56:36;100530.81;;;15.15;100.00
10071;BME280;5074;53.720;10.014;2022-09-09T07:59:07;100536.81;;;15.20;100.00
10071;BME280;5074;53.720;10.014;2022-09-09T08:01:38;100529.00;;;15.31;100.00
10071;BME280;5074;53.720;10.014;2022-09-09T08:04:07;100538.09;;;15.28;100.00
10071;BME280;5074;53.720;10.014;2022-09-09T08:06:38;100539.56;;;15.34;100.00
10071;BME280;5074;53.720;10.014;2022-09-09T08:09:07;100538.50;;;15.37;100.00
10071;BME280;5074;53.720;10.014;2022-09-09T08:11:36;100529.19;;;15.42;100.00
10071;BME280;5074;53.720;10.014;2022-09-09T08:14:07;100526.91;;;15.51;100.00
10071;BME280;5074;53.720;10.014;2022-09-09T08:16:38;100540.63;;;15.62;100.00
10071;BME280;5074;53.720;10.014;2022-09-09T08:19:07;100536.88;;;15.65;100.00
10071;BME280;5074;53.720;10.014;2022-09-09T08:21:36;100545.69;;;15.52;100.00
10071;BME280;5074;53.720;10.014;2022-09-09T08:24:06;100552.19;;;15.48;100.00
10071;BME280;5074;53.720;10.014;2022-09-09T08:26:36;100554.59;;;15.38;100.00
10071;BME280;5074;53.720;10.014;2022-09-09T08:29:08;100553.97;;;15.33;100.00
10071;BME280;5074;53.720;10.014;2022-09-09T08:31:38;100554.16;;;15.30;100.00
10071;BME280;5074;53.720;10.014;2022-09-09T08:34:07;100553.97;;;15.33;100.00
10071;BME280;5074;53.720;10.014;2022-09-09T08:36:38;100555.53;;;15.37;100.00
10071;BME280;5074;53.720;10.014;2022-09-09T08:39:07;100549.97;;;15.40;100.00
10071;BME280;5074;53.720;10.014;2022-09-09T08:41:59;100551.72;;;15.41;100.00
10071;BME280;5074;53.720;10.014;2022-09-09T08:44:44;100557.28;;;15.38;100.00
10071;BME280;5074;53.720;10.014;2022-09-09T08:47:24;100561.13;;;15.34;100.00
10071;BME280;5074;53.720;10.014;2022-09-09T08:50:12;100569.88;;;15.38;100.00
10071;BME280;5074;53.720;10.014;2022-09-09T08:52:47;100561.41;;;15.44;100.00
10071;BME280;5074;53.720;10.014;2022-09-09T08:55:24;100567.50;;;15.48;100.00
10071;BME280;5074;53.720;10.014;2022-09-09T08:57:55;100557.97;;;15.42;100.00
10071;BME280;5074;53.720;10.014;2022-09-09T09:00:30;100563.69;;;15.52;100.00
10071;BME280;5074;53.720;10.014;2022-09-09T09:03:06;100567.78;;;15.73;100.00
10071;BME280;5074;53.720;10.014;2022-09-09T09:05:44;100565.16;;;15.88;100.00
10071;BME280;5074;53.720;10.014;2022-09-09T09:08:21;100553.81;;;15.97;100.00
10071;BME280;5074;53.720;10.014;2022-09-09T09:10:54;100573.94;;;16.20;100.00
10071;BME280;5074;53.720;10.014;2022-09-09T09:13:31;100570.31;;;16.36;100.00
10071;BME280;5074;53.720;10.014;2022-09-09T09:16:17;100557.88;;;16.47;100.00
10071;BME280;5074;53.720;10.014;2022-09-09T09:18:49;100569.25;;;16.67;100.00
10071;BME280;5074;53.720;10.014;2022-09-09T09:21:21;100564.47;;;16.85;100.00
10071;BME280;5074;53.720;10.014;2022-09-09T09:23:56;100573.25;;;17.03;100.00
10071;BME280;5074;53.720;10.014;2022-09-09T09:26:29;100574.69;;;17.09;100.00
10071;BME280;5074;53.720;10.014;2022-09-09T09:28:59;100568.47;;;17.21;100.00
10071;BME280;5074;53.720;10.014;2022-09-09T09:31:31;100566.03;;;17.31;100.00
10071;BME280;5074;53.720;10.014;2022-09-09T09:33:59;100563.88;;;17.36;100.00
10071;BME280;5074;53.720;10.014;2022-09-09T09:36:34;100567.66;;;17.33;100.00
10071;BME280;5074;53.720;10.014;2022-09-09T09:39:03;100560.00;;;17.40;100.00
10071;BME280;5074;53.720;10.014;2022-09-09T09:41:52;100565.41;;;17.40;100.00
10071;BME280;5074;53.720;10.014;2022-09-09T09:44:26;100563.78;;;17.38;100.00
10071;BME280;5074;53.720;10.014;2022-09-09T09:47:07;100561.09;;;17.38;100.00
10071;BME280;5074;53.720;10.014;2022-09-09T09:49:35;100565.41;;;17.40;100.00
10071;BME280;5074;53.720;10.014;2022-09-09T09:52:04;100563.91;;;17.49;100.00
10071;BME280;5074;53.720;10.014;2022-09-09T09:54:37;100561.16;;;17.36;100.00
10071;BME280;5074;53.720;10.014;2022-09-09T09:57:09;100574.81;;;17.47;100.00
10071;BME280;5074;53.720;10.014;2022-09-09T09:59:39;100566.88;;;17.31;100.00
10071;BME280;5074;53.720;10.014;2022-09-09T10:02:17;100571.22;;;17.34;100.00
10071;BME280;5074;53.720;10.014;2022-09-09T10:04:46;100573.50;;;17.40;100.00
10071;BME280;5074;53.720;10.014;2022-09-09T10:07:19;100572.44;;;17.43;100.00
10071;BME280;5074;53.720;10.014;2022-09-09T10:09:51;100573.97;;;17.47;100.00
10071;BME280;5074;53.720;10.014;2022-09-09T10:12:30;100581.75;;;17.51;100.00
10071;BME280;5074;53.720;10.014;2022-09-09T10:15:09;100568.25;;;17.51;100.00
10071;BME280;5074;53.720;10.014;2022-09-09T10:17:54;100570.19;;;17.49;100.00
10071;BME280;5074;53.720;10.014;2022-09-09T10:20:32;100567.88;;;17.43;100.00
10071;BME280;5074;53.720;10.014;2022-09-09T10:23:11;100565.91;;;17.32;100.00
10071;BME280;5074;53.720;10.014;2022-09-09T10:26:01;100557.81;;;17.32;100.00
10071;BME280;5074;53.720;10.014;2022-09-09T10:28:55;100560.63;;;17.31;100.00
10071;BME280;5074;53.720;10.014;2022-09-09T10:31:34;100560.41;;;17.34;100.00
10071;BME280;5074;53.720;10.014;2022-09-09T10:34:29;100559.88;;;17.42;100.00
10071;BME280;5074;53.720;10.014;2022-09-09T10:37:03;100560.00;;;17.40;100.00
10071;BME280;5074;53.720;10.014;2022-09-09T10:39:37;100565.88;;;17.47;100.00
10071;BME280;5074;53.720;10.014;2022-09-09T10:42:09;100558.75;;;17.59;100.00
10071;BME280;5074;53.720;10.014;2022-09-09T10:44:53;100557.16;;;17.69;100.00
10071;BME280;5074;53.720;10.014;2022-09-09T10:47:43;100553.59;;;17.68;100.00
10071;BME280;5074;53.720;10.014;2022-09-09T10:50:31;100555.13;;;17.73;100.00
10071;BME280;5074;53.720;10.014;2022-09-09T10:53:31;100543.56;;;17.83;100.00
10071;BME280;5074;53.720;10.014;2022-09-09T10:56:06;100551.19;;;17.91;100.00
10071;BME280;5074;53.720;10.014;2022-09-09T10:58:40;100563.09;;;18.01;100.00
10071;BME280;5074;53.720;10.014;2022-09-09T11:01:15;100553.13;;;18.15;100.00
10071;BME280;5074;53.720;10.014;2022-09-09T11:03:48;100556.81;;;18.27;100.00
10071;BME280;5074;53.720;10.014;2022-09-09T11:06:21;100544.22;;;18.38;100.00
10071;BME280;5074;53.720;10.014;2022-09-09T11:08:55;100553.41;;;18.49;100.00
10071;BME280;5074;53.720;10.014;2022-09-09T11:11:29;100549.50;;;18.53;100.00
10071;BME280;5074;53.720;10.014;2022-09-09T11:14:01;100554.53;;;18.46;100.00
10071;BME280;5074;53.720;10.014;2022-09-09T11:16:35;100553.22;;;18.52;100.00
10071;BME280;5074;53.720;10.014;2022-09-09T11:19:16;100558.19;;;18.58;100.00
10071;BME280;5074;53.720;10.014;2022-09-09T11:21:49;100552.09;;;18.67;100.00
10071;BME280;5074;53.720;10.014;2022-09-09T11:24:22;100561.72;;;18.71;100.00
10071;BME280;5074;53.720;10.014;2022-09-09T11:26:54;100558.97;;;18.84;100.00
10071;BME280;5074;53.720;10.014;2022-09-09T11:32:42;100566.28;;;19.08;100.00
10071;BME280;5074;53.720;10.014;2022-09-09T11:35:26;100556.00;;;19.13;100.00
10071;BME280;5074;53.720;10.014;2022-09-09T11:38:16;100557.81;;;19.25;100.00
10071;BME280;5074;53.720;10.014;2022-09-09T11:40:46;100558.53;;;19.27;100.00
10071;BME280;5074;53.720;10.014;2022-09-09T11:43:18;100562.97;;;19.29;100.00
10071;BME280;5074;53.720;10.014;2022-09-09T11:45:51;100565.84;;;19.14;100.00
10071;BME280;5074;53.720;10.014;2022-09-09T11:48:31;100562.03;;;18.92;100.00
10071;BME280;5074;53.720;10.014;2022-09-09T11:51:04;100567.09;;;18.97;100.00
10071;BME280;5074;53.720;10.014;2022-09-09T11:53:49;100571.34;;;19.25;100.00
10071;BME280;5074;53.720;10.014;2022-09-09T11:56:26;100561.13;;;19.53;100.00
10071;BME280;5074;53.720;10.014;2022-09-09T11:58:57;100555.81;;;19.87;100.00
10071;BME280;5074;53.720;10.014;2022-09-09T12:01:35;100555.88;;;20.10;100.00
10071;BME280;5074;53.720;10.014;2022-09-09T12:04:14;100555.94;;;20.44;100.00
10071;BME280;5074;53.720;10.014;2022-09-09T12:06:51;100556.28;;;20.62;100.00
10071;BME280;5074;53.720;10.014;2022-09-09T12:09:30;100560.22;;;20.58;100.00
10071;BME280;5074;53.720;10.014;2022-09-09T12:15:24;100550.72;;;20.52;100.00
10071;BME280;5074;53.720;10.014;2022-09-09T12:17:56;100543.59;;;20.74;100.00
10071;BME280;5074;53.720;10.014;2022-09-09T12:20:33;100548.53;;;20.80;100.00
10071;BME280;5074;53.720;10.014;2022-09-09T12:23:15;100554.41;;;20.96;100.00
10071;BME280;5074;53.720;10.014;2022-09-09T12:25:57;100547.63;;;20.91;100.00
10071;BME280;5074;53.720;10.014;2022-09-09T12:28:38;100548.34;;;20.93;100.00
10071;BME280;5074;53.720;10.014;2022-09-09T12:31:10;100546.13;;;20.64;100.00
10071;BME280;5074;53.720;10.014;2022-09-09T12:33:45;100551.72;;;20.40;100.00
10071;BME280;5074;53.720;10.014;2022-09-09T12:36:17;100550.91;;;19.92;100.00
10071;BME280;5074;53.720;10.014;2022-09-09T12:38:47;100557.44;;;19.66;100.00
10071;BME280;5074;53.720;10.014;2022-09-09T12:41:20;100554.13;;;19.62;100.00
10071;BME280;5074;53.720;10.014;2022-09-09T12:43:49;100560.94;;;19.68;100.00
10071;BME280;5074;53.720;10.014;2022-09-09T12:46:27;100556.31;;;19.81;100.00
10071;BME280;5074;53.720;10.014;2022-09-09T12:48:59;100556.31;;;19.81;100.00
10071;BME280;5074;53.720;10.014;2022-09-09T12:51:30;100545.50;;;19.92;100.00
10071;BME280;5074;53.720;10.014;2022-09-09T12:53:59;100553.38;;;19.95;100.00
10071;BME280;5074;53.720;10.014;2022-09-09T12:56:31;100544.19;;;20.21;100.00
10071;BME280;5074;53.720;10.014;2022-09-09T12:58:59;100545.03;;;20.55;100.00
10071;BME280;5074;53.720;10.014;2022-09-09T13:01:29;100543.16;;;21.01;100.00
10071;BME280;5074;53.720;10.014;2022-09-09T13:03:58;100520.69;;;21.10;100.00
10071;BME280;5074;53.720;10.014;2022-09-09T13:06:28;100552.88;;;21.26;100.00
10071;BME280;5074;53.720;10.014;2022-09-09T13:08:58;100547.59;;;21.13;100.00
10071;BME280;5074;53.720;10.014;2022-09-09T13:11:33;100547.28;;;21.28;100.00
10071;BME280;5074;53.720;10.014;2022-09-09T13:14:03;100555.75;;;21.13;100.00